Time;durP1;ratioP1;P1;durP2;ratioP2;P2;SDS_P1;SDS_P2;PMS_P1;PMS_P2;Temp;Humidity;BMP_temperature;BMP_pressure;BME280_temperature;BME280_humidity;BME280_pressure;Samples;Min_cycle;Max_cycle;Signal;HPM_P1;HPM_P2
2023/03/03 00:01:33;;;;;;;10.55;4.75;;;;;;;-0.65;55.80;102547.25;4995548;28;20049;-69
2023/03/03 00:03:59;;;;;;;25.98;3.95;;;;;;;-0.71;55.25;102553.88;4999460;28;20253;-68
2023/03/03 00:06:25;;;;;;;7.00;3.40;;;;;;;-0.89;55.37;102552.44;4996601;28;20052;-67
2023/03/03 00:08:51;;;;;;;13.07;4.32;;;;;;;-0.95;55.74;102546.22;5029728;28;20029;-69
2023/03/03 00:11:17;;;;;;;12.00;3.70;;;;;;;-0.98;55.70;102549.53;4997333;28;20088;-68
2023/03/03 00:13:46;;;;;;;11.63;4.07;;;;;;;-0.94;55.56;102545.41;4997503;28;20029;-67
2023/03/03 00:16:12;;;;;;;10.02;4.05;;;;;;;-1.02;55.48;102553.72;5028633;28;20191;-68
2023/03/03 00:18:42;;;;;;;15.10;4.25;;;;;;;-1.09;55.46;102546.56;5025539;28;20944;-69
2023/03/03 00:21:30;;;;;;;14.45;4.75;;;;;;;-1.03;55.58;102541.69;5015812;28;20045;-68
2023/03/03 00:24:12;;;;;;;9.48;3.97;;;;;;;-1.08;55.63;102543.19;5017223;28;20063;-68
2023/03/03 00:26:39;;;;;;;;;;;;;;;-1.09;55.53;102535.44;5016861;28;20172;-65
2023/03/03 00:29:26;;;;;;;19.73;3.88;;;;;;;-1.23;55.33;102530.69;5018585;28;19932;-67
2023/03/03 00:31:51;;;;;;;10.77;2.55;;;;;;;-1.30;55.39;102536.44;5016159;28;20037;-68
2023/03/03 00:34:17;;;;;;;12.45;3.35;;;;;;;-1.27;55.39;102540.78;5016952;28;20037;-68
2023/03/03 00:36:43;;;;;;;6.85;3.05;;;;;;;-1.35;55.71;102539.63;5017055;28;20146;-68
2023/03/03 00:39:15;;;;;;;7.18;2.58;;;;;;;-1.36;55.25;102543.88;5019486;28;20041;-66
2023/03/03 00:41:40;;;;;;;6.15;3.00;;;;;;;-1.50;55.25;102545.97;5008440;28;20045;-66
2023/03/03 00:44:29;;;;;;;10.88;2.67;;;;;;;-1.54;55.21;102538.09;5021366;28;20045;-67
2023/03/03 00:46:55;;;;;;;6.05;2.47;;;;;;;-1.59;55.38;102538.78;5015784;28;20061;-69
2023/03/03 00:49:25;;;;;;;7.55;2.70;;;;;;;-1.62;55.52;102548.06;5012991;28;20033;-65
2023/03/03 00:51:52;;;;;;;5.65;2.80;;;;;;;-1.61;55.59;102539.56;5020569;28;20029;-74
2023/03/03 00:54:17;;;;;;;6.68;2.85;;;;;;;-1.52;55.26;102537.34;5014535;28;20556;-73
2023/03/03 00:56:43;;;;;;;6.70;3.13;;;;;;;-1.58;55.06;102534.53;5017524;28;20033;-69
2023/03/03 00:59:09;;;;;;;7.43;2.85;;;;;;;-1.71;55.27;102538.34;5024465;28;20049;-71
2023/03/03 01:01:35;;;;;;;5.28;2.33;;;;;;;-1.81;55.17;102532.00;5004114;28;20033;-70
2023/03/03 01:04:00;;;;;;;5.75;2.25;;;;;;;-1.77;55.59;102532.13;5031940;28;20040;-77
2023/03/03 01:06:26;;;;;;;4.82;2.00;;;;;;;-1.78;55.43;102530.34;5025869;28;20036;-77
2023/03/03 01:08:53;;;;;;;5.45;1.92;;;;;;;-1.74;55.24;102532.22;5017631;28;20063;-66
2023/03/03 01:11:24;;;;;;;6.43;2.30;;;;;;;-1.71;55.29;102540.03;5021286;28;20041;-69
2023/03/03 01:13:51;;;;;;;5.53;2.20;;;;;;;-1.73;55.04;102541.66;5021905;28;20041;-70
2023/03/03 01:16:17;;;;;;;10.30;3.33;;;;;;;-1.93;55.31;102536.66;5013441;28;20679;-71
2023/03/03 01:18:43;;;;;;;7.03;3.35;;;;;;;-2.01;56.00;102545.72;5019043;28;20033;-72
2023/03/03 01:21:09;;;;;;;8.80;2.65;;;;;;;-1.81;55.67;102537.09;5024000;28;20674;-80
2023/03/03 01:23:35;;;;;;;6.82;2.85;;;;;;;-1.77;55.57;102542.38;5010033;28;20145;-78
2023/03/03 01:26:01;;;;;;;6.07;2.88;;;;;;;-1.82;55.49;102535.38;5029328;28;20122;-68
2023/03/03 01:28:26;;;;;;;6.90;2.53;;;;;;;-1.88;55.27;102536.84;5018906;28;20171;-66
2023/03/03 01:30:52;;;;;;;6.05;2.58;;;;;;;-1.83;55.29;102538.75;5004235;28;21350;-75
2023/03/03 01:33:18;;;;;;;17.25;3.08;;;;;;;-2.01;55.56;102532.91;5020061;28;20059;-71
2023/03/03 01:35:46;;;;;;;19.20;3.50;;;;;;;-2.11;55.75;102534.25;5021868;28;20104;-73
2023/03/03 01:38:11;;;;;;;11.30;3.67;;;;;;;-1.91;55.75;102540.16;5023305;28;20147;-77
2023/03/03 01:40:37;;;;;;;8.82;3.20;;;;;;;-1.96;55.13;102543.34;5000085;28;20930;-71
2023/03/03 01:43:03;;;;;;;5.05;2.35;;;;;;;-2.07;55.53;102536.13;5018586;28;20094;-76
2023/03/03 01:45:48;;;;;;;20.45;3.80;;;;;;;-2.18;54.83;102528.81;5027040;28;20041;-75
2023/03/03 01:48:24;;;;;;;38.53;3.95;;;;;;;-2.17;55.66;102535.69;5018613;28;20029;-75
2023/03/03 01:51:25;;;;;;;10.10;3.22;;;;;;;-2.24;55.47;102535.44;5028345;28;20510;-76
2023/03/03 01:53:54;;;;;;;18.65;4.18;;;;;;;-2.34;55.49;102540.16;5013233;28;20052;-78
2023/03/03 01:56:20;;;;;;;18.92;3.88;;;;;;;-2.27;55.07;102534.44;5035184;28;20025;-79
2023/03/03 01:58:51;;;;;;;7.50;2.60;;;;;;;-2.34;55.14;102535.88;5018253;28;20043;-69
2023/03/03 02:01:25;;;;;;;9.98;3.10;;;;;;;-2.33;55.18;102535.09;5029201;28;20033;-79
2023/03/03 02:03:52;;;;;;;21.67;7.80;;;;;;;-2.25;55.36;102532.81;5029396;28;20074;-80
2023/03/03 02:06:21;;;;;;;23.67;8.07;;;;;;;-2.28;55.23;102528.47;5031007;28;20052;-68
2023/03/03 02:09:31;;;;;;;16.40;6.22;;;;;;;-2.48;54.99;102534.47;5022051;28;20460;-68
2023/03/03 02:12:00;;;;;;;11.30;5.22;;;;;;;-2.58;55.04;102538.34;4935928;28;20712;-70
2023/03/03 02:14:25;;;;;;;13.30;5.25;;;;;;;-2.50;55.13;102536.09;5003800;28;20315;-70
2023/03/03 02:16:51;;;;;;;14.18;6.40;;;;;;;-2.65;55.16;102532.09;5013979;28;20442;-70
2023/03/03 02:19:44;;;;;;;17.23;4.32;;;;;;;-2.73;55.26;102523.22;5013942;28;20422;-71
2023/03/03 02:22:13;;;;;;;7.75;3.17;;;;;;;-3.06;55.68;102531.22;5031687;28;20035;-70
2023/03/03 02:24:58;;;;;;;18.27;3.78;;;;;;;-3.14;55.48;102526.56;5022806;28;20037;-72
2023/03/03 02:27:26;;;;;;;6.95;2.20;;;;;;;-3.02;55.84;102523.69;5022124;28;20036;-72
2023/03/03 02:29:52;;;;;;;8.43;2.65;;;;;;;-2.99;55.22;102524.69;5019547;28;20044;-73
2023/03/03 02:32:19;;;;;;;6.47;3.03;;;;;;;-3.00;55.09;102522.06;5001777;28;20826;-72
2023/03/03 02:34:51;;;;;;;12.07;4.40;;;;;;;-3.15;55.83;102524.84;5020757;28;20037;-74
2023/03/03 02:37:19;;;;;;;10.80;4.18;;;;;;;-3.10;55.45;102526.75;5004184;28;20033;-69
2023/03/03 02:39:44;;;;;;;6.78;3.38;;;;;;;-3.18;55.32;102523.03;5004334;28;20167;-69
2023/03/03 02:42:21;;;;;;;7.97;2.80;;;;;;;-3.07;55.57;102521.81;5016537;28;20143;-69
2023/03/03 02:44:51;;;;;;;9.02;3.85;;;;;;;-2.90;55.34;102519.06;5012634;28;20037;-69
2023/03/03 02:47:17;;;;;;;9.20;3.78;;;;;;;-2.80;54.90;102526.34;5013440;28;20025;-68
2023/03/03 02:49:42;;;;;;;8.93;4.25;;;;;;;-2.82;54.82;102515.16;5011118;28;20086;-69
2023/03/03 02:52:11;;;;;;;7.55;3.97;;;;;;;-2.84;54.99;102515.09;5013202;28;20040;-68
2023/03/03 02:54:39;;;;;;;9.18;2.97;;;;;;;-2.80;54.69;102516.09;5013336;28;20129;-69
2023/03/03 02:57:07;;;;;;;8.68;3.35;;;;;;;-3.00;54.68;102512.69;5006886;28;20033;-68
2023/03/03 02:59:33;;;;;;;5.85;3.08;;;;;;;-2.97;54.58;102511.94;5007795;28;20041;-70
2023/03/03 03:02:06;;;;;;;6.90;3.33;;;;;;;-2.94;54.76;102506.97;5016650;28;20037;-69
2023/03/03 03:04:34;;;;;;;6.57;3.22;;;;;;;-3.05;54.85;102504.84;5010213;28;20137;-73
2023/03/03 03:07:00;;;;;;;7.55;3.28;;;;;;;-3.15;54.95;102502.69;5014391;28;20383;-73
2023/03/03 03:09:27;;;;;;;8.43;2.72;;;;;;;-3.11;54.85;102499.44;5012930;28;20112;-73
2023/03/03 03:11:53;;;;;;;4.63;2.38;;;;;;;-3.09;54.68;102496.97;5016687;28;20119;-72
2023/03/03 03:14:23;;;;;;;8.23;3.33;;;;;;;-3.16;54.74;102500.94;4998789;28;20540;-73
2023/03/03 03:16:49;;;;;;;7.82;2.95;;;;;;;-3.19;54.75;102499.94;5014650;28;20060;-73
2023/03/03 03:19:14;;;;;;;6.22;2.80;;;;;;;-3.31;54.75;102505.41;5000375;28;20136;-69
2023/03/03 03:21:42;;;;;;;4.93;2.00;;;;;;;-3.23;55.44;102508.28;5020155;28;20199;-69
2023/03/03 03:24:09;;;;;;;5.68;2.58;;;;;;;-3.20;55.00;102498.19;5020333;28;20095;-70
2023/03/03 03:26:39;;;;;;;8.48;3.63;;;;;;;-3.23;54.52;102504.03;5012203;28;20072;-70
2023/03/03 03:29:05;;;;;;;6.57;2.85;;;;;;;-3.19;54.77;102500.78;5013722;28;20252;-73
2023/03/03 03:31:31;;;;;;;8.13;2.70;;;;;;;-3.24;54.62;102506.53;5020985;28;20700;-73
2023/03/03 03:33:59;;;;;;;9.77;3.42;;;;;;;-3.25;54.63;102510.75;5017223;28;20029;-73
2023/03/03 03:36:27;;;;;;;6.57;2.53;;;;;;;-3.24;54.56;102512.53;5013686;28;20041;-71
2023/03/03 03:38:53;;;;;;;7.57;3.10;;;;;;;-3.25;54.67;102515.88;5017716;28;20536;-77
2023/03/03 03:41:18;;;;;;;8.20;3.30;;;;;;;-3.34;54.82;102523.13;5015460;28;20033;-77
2023/03/03 03:43:44;;;;;;;7.20;3.05;;;;;;;-3.25;54.80;102520.97;5016319;28;20112;-74
2023/03/03 03:46:10;;;;;;;8.52;3.03;;;;;;;-3.18;54.74;102515.34;5032055;28;20022;-81
2023/03/03 03:48:35;;;;;;;7.53;3.45;;;;;;;-3.26;54.65;102521.81;5030004;28;20037;-70
2023/03/03 03:51:03;;;;;;;6.55;2.72;;;;;;;-3.35;54.88;102523.97;4994143;28;20052;-66
2023/03/03 03:53:30;;;;;;;7.30;3.35;;;;;;;-3.34;54.75;102528.25;4999983;28;20045;-68
2023/03/03 03:55:55;;;;;;;10.73;3.28;;;;;;;-3.34;54.49;102528.25;4999032;28;20075;-66
2023/03/03 03:58:21;;;;;;;9.77;3.47;;;;;;;-3.35;54.62;102529.94;4995145;28;20061;-67
2023/03/03 04:00:53;;;;;;;6.57;2.63;;;;;;;-3.23;54.47;102527.03;4994750;28;21222;-77
2023/03/03 04:03:18;;;;;;;8.43;3.30;;;;;;;-3.22;54.60;102526.25;5003051;28;20395;-80
2023/03/03 04:05:51;;;;;;;6.85;3.15;;;;;;;-3.34;54.50;102526.59;5001463;28;20037;-68
2023/03/03 04:08:17;;;;;;;7.88;2.85;;;;;;;-3.37;54.69;102525.56;4992702;28;20155;-66
2023/03/03 04:10:42;;;;;;;7.18;3.33;;;;;;;-3.35;54.83;102523.97;5000142;28;20041;-65
2023/03/03 04:13:08;;;;;;;7.88;3.05;;;;;;;-3.41;54.65;102526.25;4993763;28;20043;-73
2023/03/03 04:15:34;;;;;;;6.47;2.83;;;;;;;-3.55;55.04;102530.75;5000647;28;20037;-74
2023/03/03 04:18:01;;;;;;;6.68;3.28;;;;;;;-3.60;55.24;102522.88;4993378;28;20051;-75
2023/03/03 04:20:27;;;;;;;7.35;2.83;;;;;;;-3.76;55.91;102530.66;4994040;28;20049;-73
2023/03/03 04:22:55;;;;;;;7.35;2.70;;;;;;;-3.67;55.63;102521.72;4982448;28;20121;-74
2023/03/03 04:25:22;;;;;;;6.97;3.05;;;;;;;-3.56;55.31;102514.53;4993666;28;20034;-74
2023/03/03 04:27:50;;;;;;;6.15;2.67;;;;;;;-3.52;55.18;102511.31;4992387;28;20121;-73
2023/03/03 04:30:17;;;;;;;6.05;3.00;;;;;;;-3.65;55.55;102518.34;4978802;28;20037;-73
2023/03/03 04:32:46;;;;;;;8.43;3.35;;;;;;;-3.53;55.73;102512.09;4995714;28;20040;-74
2023/03/03 04:35:12;;;;;;;8.25;3.80;;;;;;;-3.50;55.39;102508.81;4995997;28;20052;-73
2023/03/03 04:37:41;;;;;;;7.40;3.15;;;;;;;-3.62;55.54;102514.25;4997797;28;20034;-74
2023/03/03 04:40:08;;;;;;;7.55;3.00;;;;;;;-3.57;55.38;102511.91;4996443;28;20038;-73
2023/03/03 04:42:35;;;;;;;10.05;3.90;;;;;;;-3.67;55.16;102513.19;4983514;28;20037;-74
2023/03/03 04:45:02;;;;;;;12.65;4.55;;;;;;;-3.56;55.76;102504.31;4994622;28;20037;-73
2023/03/03 04:47:31;;;;;;;7.50;3.17;;;;;;;-3.37;55.27;102505.13;5003257;28;20026;-73
2023/03/03 04:49:57;;;;;;;9.95;3.22;;;;;;;-3.37;55.29;102507.69;5002553;28;20044;-75
2023/03/03 04:52:22;;;;;;;8.85;3.85;;;;;;;-3.34;55.29;102502.69;4994644;28;20033;-73
2023/03/03 04:54:48;;;;;;;5.80;2.83;;;;;;;-3.35;55.19;102495.84;4982952;28;20034;-74
2023/03/03 04:57:14;;;;;;;10.15;3.33;;;;;;;-3.47;55.20;102498.75;4996619;28;20063;-72
2023/03/03 04:59:43;;;;;;;9.15;2.92;;;;;;;-3.66;55.43;102491.91;4994248;28;20065;-78
2023/03/03 05:02:08;;;;;;;7.05;3.53;;;;;;;-3.53;55.50;102494.22;5000714;28;20557;-76
2023/03/03 05:04:34;;;;;;;10.48;3.97;;;;;;;-3.61;55.40;102499.78;4981770;28;20068;-77
2023/03/03 05:07:00;;;;;;;30.77;4.35;;;;;;;-3.58;55.21;102498.25;4989753;28;20111;-74
2023/03/03 05:09:26;;;;;;;30.25;5.40;;;;;;;-3.73;55.58;102500.13;4995239;28;20769;-74
2023/03/03 05:11:51;;;;;;;13.15;3.78;;;;;;;-3.64;55.67;102497.09;4998052;28;20041;-70
2023/03/03 05:14:17;;;;;;;24.70;4.43;;;;;;;-3.91;55.85;102501.03;4980903;28;20045;-70
2023/03/03 05:16:43;;;;;;;20.30;5.03;;;;;;;-3.89;55.90;102494.31;4998619;28;20053;-71
2023/03/03 05:19:08;;;;;;;15.73;3.92;;;;;;;-3.89;55.58;102489.19;4999079;28;20046;-68
2023/03/03 05:21:34;;;;;;;18.42;3.58;;;;;;;-3.84;55.65;102486.84;4993621;28;20722;-70
2023/03/03 05:23:59;;;;;;;9.43;3.47;;;;;;;-3.77;55.61;102488.00;4997182;28;20068;-72
2023/03/03 05:26:25;;;;;;;10.70;4.05;;;;;;;-3.85;55.56;102484.22;4980137;28;20048;-70
2023/03/03 05:28:50;;;;;;;9.35;4.20;;;;;;;-3.94;55.87;102484.69;4995921;28;20034;-70
2023/03/03 05:31:16;;;;;;;8.52;4.13;;;;;;;-4.04;56.19;102483.38;4984848;28;20041;-70
2023/03/03 05:33:42;;;;;;;9.52;3.95;;;;;;;-4.11;56.23;102499.22;4995842;28;20033;-69
2023/03/03 05:36:07;;;;;;;24.48;4.28;;;;;;;-4.09;56.16;102498.50;4995596;28;20054;-69
2023/03/03 05:38:32;;;;;;;12.00;4.30;;;;;;;-4.04;56.01;102496.16;4994408;28;20076;-69
2023/03/03 05:40:58;;;;;;;16.15;4.57;;;;;;;-4.16;56.31;102496.47;4996193;28;20061;-70
2023/03/03 05:43:24;;;;;;;10.23;3.55;;;;;;;-4.21;56.37;102504.69;4995826;28;20033;-70
2023/03/03 05:45:55;;;;;;;8.88;3.83;;;;;;;-4.11;56.06;102499.22;4995742;28;20041;-70
2023/03/03 05:48:21;;;;;;;9.48;3.45;;;;;;;-4.05;55.81;102506.28;4980235;28;20022;-71
2023/03/03 05:50:47;;;;;;;10.43;3.33;;;;;;;-4.06;55.79;102502.88;4996342;28;20040;-69
2023/03/03 05:53:12;;;;;;;8.38;4.03;;;;;;;-3.90;55.43;102502.78;4995173;28;20034;-72
2023/03/03 05:55:38;;;;;;;9.07;4.15;;;;;;;-4.00;55.64;102500.59;4997584;28;20044;-66
2023/03/03 05:58:04;;;;;;;10.50;4.68;;;;;;;-3.93;55.39;102502.63;4995367;28;20402;-68
2023/03/03 06:00:29;;;;;;;11.32;4.05;;;;;;;-4.19;55.97;102508.19;4994784;28;20507;-67
2023/03/03 06:02:55;;;;;;;11.82;4.57;;;;;;;-4.14;55.69;102516.97;4995802;28;22596;-68
2023/03/03 06:05:21;;;;;;;13.48;3.88;;;;;;;-4.24;56.03;102520.75;4994656;28;20323;-68
2023/03/03 06:07:46;;;;;;;9.75;4.55;;;;;;;-4.21;56.20;102520.00;4995111;28;20131;-69
2023/03/03 06:10:12;;;;;;;11.63;4.38;;;;;;;-4.20;55.83;102524.34;4992921;28;20045;-68
2023/03/03 06:12:40;;;;;;;11.90;4.82;;;;;;;-4.20;55.85;102525.22;4996386;28;20566;-65
2023/03/03 06:15:07;;;;;;;12.20;4.70;;;;;;;-4.23;56.60;102537.84;4994042;28;20049;-66
2023/03/03 06:17:33;;;;;;;18.00;7.82;;;;;;;-4.24;56.47;102545.41;4994484;28;20036;-65
2023/03/03 06:19:58;;;;;;;23.20;6.72;;;;;;;-3.99;55.89;102542.34;4994426;28;20041;-67
2023/03/03 06:22:24;;;;;;;15.52;6.00;;;;;;;-3.96;56.29;102550.16;4993512;28;20603;-66
2023/03/03 06:24:51;;;;;;;16.35;5.03;;;;;;;-3.96;56.08;102543.38;4993583;28;20322;-67
2023/03/03 06:27:17;;;;;;;11.50;4.65;;;;;;;-4.05;55.80;102548.06;4999203;28;20044;-69
2023/03/03 06:29:43;;;;;;;12.05;4.97;;;;;;;-3.92;56.23;102546.94;4997134;28;20041;-69
2023/03/03 06:32:10;;;;;;;35.70;4.82;;;;;;;-4.04;56.28;102548.91;4995711;28;20080;-71
2023/03/03 06:34:36;;;;;;;11.88;4.38;;;;;;;-3.78;56.36;102543.34;4991179;28;20084;-71
2023/03/03 06:37:02;;;;;;;11.88;4.88;;;;;;;-3.65;56.33;102544.81;5002028;28;20029;-72
2023/03/03 06:39:28;;;;;;;15.82;4.80;;;;;;;-3.82;56.05;102551.69;4991592;28;20041;-70
2023/03/03 06:41:53;;;;;;;24.40;5.35;;;;;;;-3.86;55.92;102547.22;4993224;28;20034;-70
2023/03/03 06:44:19;;;;;;;20.85;5.63;;;;;;;-3.95;55.88;102544.25;4992151;28;20061;-71
2023/03/03 06:46:44;;;;;;;13.73;4.38;;;;;;;-3.83;56.12;102547.38;4995114;28;20512;-71
2023/03/03 06:49:10;;;;;;;9.90;4.38;;;;;;;-3.55;56.23;102551.19;4998491;28;20069;-70
2023/03/03 06:51:38;;;;;;;13.23;5.18;;;;;;;-3.40;55.71;102540.78;4994154;28;20045;-71
2023/03/03 06:54:15;;;;;;;11.93;4.63;;;;;;;-3.51;55.70;102556.50;4991739;28;20111;-72
2023/03/03 06:56:43;;;;;;;18.75;5.55;;;;;;;-3.32;55.14;102540.31;4995657;28;20029;-70
2023/03/03 06:59:14;;;;;;;18.27;5.05;;;;;;;-3.21;54.92;102543.34;4992113;28;20135;-70
2023/03/03 07:01:40;;;;;;;12.40;4.22;;;;;;;-2.77;54.65;102541.81;4993146;28;20091;-69
2023/03/03 07:04:24;;;;;;;18.48;4.35;;;;;;;-2.67;53.70;102543.97;4992647;28;20045;-73
2023/03/03 07:06:50;;;;;;;14.88;4.35;;;;;;;-2.68;52.83;102551.56;4996377;28;20038;-76
2023/03/03 07:09:27;;;;;;;11.35;4.22;;;;;;;-2.33;52.96;102557.28;5007214;28;20213;-74
2023/03/03 07:11:59;;;;;;;9.05;3.78;;;;;;;-2.14;52.77;102557.19;4993065;28;20037;-70
2023/03/03 07:14:24;;;;;;;;;;;;;;;-2.06;52.65;102555.81;4997443;28;21545;-66
2023/03/03 07:16:58;;;;;;;8.93;3.33;;;;;;;-1.38;51.80;102559.22;4995536;28;20383;-74
2023/03/03 07:19:33;;;;;;;12.90;4.78;;;;;;;-0.59;50.83;102565.44;5004480;28;20177;-69
2023/03/03 07:22:11;;;;;;;9.55;3.70;;;;;;;0.13;47.99;102563.44;4995438;28;20030;-71
2023/03/03 07:24:37;;;;;;;6.72;3.45;;;;;;;0.78;49.60;102561.91;4991115;28;20048;-70
2023/03/03 07:27:42;;;;;;;7.35;3.50;;;;;;;1.35;46.48;102555.72;4999245;28;20485;-73
2023/03/03 07:30:27;;;;;;;10.82;3.75;;;;;;;0.49;45.42;102559.38;4982609;28;20049;-72
2023/03/03 07:32:56;;;;;;;5.25;2.92;;;;;;;-0.22;46.76;102565.78;5012185;28;20033;-68
2023/03/03 07:35:40;;;;;;;7.13;3.08;;;;;;;-0.40;48.58;102566.91;5010126;28;20037;-69
2023/03/03 07:38:23;;;;;;;8.52;4.10;;;;;;;-0.51;48.96;102568.25;5013474;28;20248;-73
2023/03/03 07:40:52;;;;;;;6.50;3.22;;;;;;;-0.56;49.04;102569.81;5018598;28;20052;-68
2023/03/03 07:43:33;;;;;;;5.55;3.30;;;;;;;-0.99;49.12;102565.78;5008773;28;20131;-69
2023/03/03 07:46:42;;;;;;;8.48;3.67;;;;;;;-1.41;49.52;102559.13;5005112;28;20128;-69
2023/03/03 07:49:20;;;;;;;7.95;3.67;;;;;;;0.24;51.06;102568.06;5009199;28;20117;-69
2023/03/03 07:51:46;;;;;;;7.40;2.88;;;;;;;1.85;44.71;102558.66;5028484;28;20035;-70
2023/03/03 07:54:37;;;;;;;8.23;3.83;;;;;;;0.89;46.63;102559.63;5010597;28;20033;-69
2023/03/03 07:57:33;;;;;;;6.40;2.85;;;;;;;3.18;42.17;102546.75;5014940;28;20068;-69
2023/03/03 08:00:27;;;;;;;8.07;3.30;;;;;;;4.35;40.06;102544.25;5010377;28;20045;-69
2023/03/03 08:03:02;;;;;;;5.25;2.97;;;;;;;3.93;37.12;102555.75;5013001;28;20037;-67
2023/03/03 08:05:38;;;;;;;5.22;2.72;;;;;;;5.62;38.69;102547.28;5012313;28;20045;-66
2023/03/03 08:08:31;;;;;;;5.65;2.60;;;;;;;7.71;33.70;102544.53;5014495;28;20094;-67
2023/03/03 08:11:01;;;;;;;4.97;2.78;;;;;;;8.53;32.52;102550.38;5012267;28;20080;-69
2023/03/03 08:13:42;;;;;;;4.53;2.60;;;;;;;8.88;33.88;102547.63;5011210;28;20043;-69
2023/03/03 08:16:07;;;;;;;4.07;2.42;;;;;;;9.00;31.01;102548.41;5013093;28;20604;-69
2023/03/03 08:18:45;;;;;;;6.78;1.90;;;;;;;8.34;32.16;102545.25;5013880;28;20034;-69
2023/03/03 08:21:16;;;;;;;4.05;2.25;;;;;;;5.95;35.52;102545.78;5015464;28;20073;-69
2023/03/03 08:23:42;;;;;;;5.82;1.67;;;;;;;4.80;36.79;102548.22;5012396;28;20120;-69
2023/03/03 08:26:08;;;;;;;5.03;2.33;;;;;;;4.04;39.52;102557.63;5023192;28;20494;-67
2023/03/03 08:28:34;;;;;;;7.13;2.47;;;;;;;3.40;41.18;102555.75;5013021;28;20025;-70
2023/03/03 08:30:59;;;;;;;6.88;2.40;;;;;;;2.72;42.47;102551.94;5015517;28;20433;-68
2023/03/03 08:33:25;;;;;;;5.95;2.42;;;;;;;2.20;43.89;102550.88;5015161;28;20029;-69
2023/03/03 08:35:51;;;;;;;4.57;2.40;;;;;;;2.13;45.06;102554.13;5014708;28;20041;-66
2023/03/03 08:38:19;;;;;;;7.63;2.38;;;;;;;2.00;45.97;102552.09;5010857;28;20043;-68
2023/03/03 08:40:46;;;;;;;5.22;3.05;;;;;;;2.02;46.54;102553.91;5015665;28;20042;-66
2023/03/03 08:43:16;;;;;;;8.18;3.38;;;;;;;1.55;47.21;102552.75;5016637;28;20032;-69
2023/03/03 08:45:45;;;;;;;9.55;3.10;;;;;;;1.64;47.67;102543.56;5021917;28;20041;-69
2023/03/03 08:48:11;;;;;;;7.32;4.70;;;;;;;1.69;48.53;102548.84;5017894;28;20124;-67
2023/03/03 08:50:38;;;;;;;5.15;2.63;;;;;;;1.42;48.78;102552.47;5010973;28;20489;-69
2023/03/03 08:53:05;;;;;;;6.82;2.15;;;;;;;1.60;48.83;102543.47;5016208;28;20043;-67
2023/03/03 08:55:30;;;;;;;6.25;2.90;;;;;;;1.57;49.05;102548.53;5004808;28;20108;-67
2023/03/03 08:57:56;;;;;;;8.52;2.70;;;;;;;1.75;49.86;102543.81;5009413;28;20038;-66
2023/03/03 09:00:22;;;;;;;5.55;2.13;;;;;;;1.84;49.76;102549.19;5009352;28;20037;-67
2023/03/03 09:02:50;;;;;;;9.10;2.80;;;;;;;1.29;50.81;102550.38;5010107;28;20040;-66
2023/03/03 09:05:17;;;;;;;7.72;2.45;;;;;;;1.79;50.85;102543.03;5016028;28;20064;-69
2023/03/03 09:07:44;;;;;;;4.07;2.33;;;;;;;1.54;51.10;102545.88;5008068;28;20511;-68
2023/03/03 09:10:12;;;;;;;7.00;2.17;;;;;;;1.45;51.53;102542.22;5009867;28;20516;-68
2023/03/03 09:12:47;;;;;;;5.68;2.00;;;;;;;1.65;52.17;102539.28;5002870;28;22417;-67
2023/03/03 09:15:18;;;;;;;6.20;2.42;;;;;;;1.79;52.65;102537.88;5008950;28;20040;-68
2023/03/03 09:17:44;;;;;;;5.45;2.55;;;;;;;1.96;51.51;102545.16;5015920;28;20213;-67
2023/03/03 09:20:28;;;;;;;4.85;2.15;;;;;;;2.33;50.71;102544.22;5008175;28;20037;-66
2023/03/03 09:22:54;;;;;;;7.03;2.72;;;;;;;2.26;51.58;102544.94;5010863;28;20028;-68
2023/03/03 09:25:46;;;;;;;4.68;1.77;;;;;;;2.80;50.60;102546.94;5012495;28;20264;-70
2023/03/03 09:28:28;;;;;;;6.70;1.75;;;;;;;2.80;50.20;102553.78;5004729;28;20128;-69
2023/03/03 09:30:59;;;;;;;4.03;2.33;;;;;;;2.70;50.98;102556.19;5007435;28;20045;-68
2023/03/03 09:33:43;;;;;;;8.75;2.13;;;;;;;3.38;50.55;102554.88;5006437;28;20036;-68
2023/03/03 09:36:29;;;;;;;5.82;1.83;;;;;;;3.49;49.63;102553.38;5022956;28;20068;-69
2023/03/03 09:38:56;;;;;;;5.68;1.65;;;;;;;3.72;48.46;102547.69;5007739;28;20148;-69
2023/03/03 09:41:43;;;;;;;10.32;1.92;;;;;;;3.96;49.09;102550.63;5019555;28;20032;-67
2023/03/03 09:44:34;;;;;;;6.70;2.95;;;;;;;3.50;49.94;102564.56;5010955;28;20359;-66
2023/03/03 09:47:33;;;;;;;4.25;1.77;;;;;;;3.89;49.80;102559.13;5010653;28;20036;-65
2023/03/03 09:50:17;;;;;;;6.50;2.50;;;;;;;4.29;49.57;102559.69;5002400;28;20037;-68
2023/03/03 09:53:04;;;;;;;8.23;4.22;;;;;;;4.48;48.83;102562.53;5001465;28;20034;-66
2023/03/03 09:55:37;;;;;;;7.78;1.85;;;;;;;4.54;48.93;102565.19;4985204;28;20137;-69
2023/03/03 09:58:12;;;;;;;3.00;1.40;;;;;;;4.82;47.70;102561.22;4988835;28;20114;-68
2023/03/03 10:01:15;;;;;;;6.97;1.67;;;;;;;4.93;47.03;102566.53;4998086;28;20056;-68
2023/03/03 10:04:14;;;;;;;4.32;1.23;;;;;;;4.78;47.60;102560.28;4975570;28;20029;-68
2023/03/03 10:06:57;;;;;;;4.68;1.38;;;;;;;5.11;47.30;102566.72;4989264;28;21460;-71
2023/03/03 10:10:02;;;;;;;7.93;1.33;;;;;;;5.12;46.38;102560.69;4983745;28;20041;-67
2023/03/03 10:12:38;;;;;;;3.90;1.48;;;;;;;5.40;45.58;102571.31;4985202;28;20070;-69
2023/03/03 10:15:28;;;;;;;6.35;1.27;;;;;;;5.45;47.12;102573.09;4990194;28;20036;-69
2023/03/03 10:17:57;;;;;;;2.75;1.20;;;;;;;5.59;46.52;102564.56;4987206;28;20157;-69
2023/03/03 10:20:38;;;;;;;5.90;2.13;;;;;;;5.56;46.34;102561.94;4984516;28;20045;-69
2023/03/03 10:23:25;;;;;;;6.55;1.25;;;;;;;5.36;46.35;102574.75;4989922;28;20805;-68
2023/03/03 10:26:03;;;;;;;2.70;1.05;;;;;;;5.47;46.28;102573.09;5004616;28;20119;-68
2023/03/03 10:28:52;;;;;;;4.50;0.95;;;;;;;5.13;47.76;102567.63;4986833;28;20490;-71
2023/03/03 10:31:36;;;;;;;4.88;1.02;;;;;;;5.42;46.60;102565.28;5021457;28;20033;-69
2023/03/03 10:34:23;;;;;;;3.47;1.20;;;;;;;5.74;45.79;102566.41;5006376;28;20049;-68
2023/03/03 10:37:18;;;;;;;3.10;0.88;;;;;;;5.73;45.76;102570.72;5008672;28;20033;-69
2023/03/03 10:39:53;;;;;;;3.72;1.02;;;;;;;5.76;46.52;102569.88;5002884;28;20515;-69
2023/03/03 10:42:38;;;;;;;3.80;0.55;;;;;;;5.87;45.87;102560.44;5006095;28;20678;-69
2023/03/03 10:45:11;;;;;;;2.80;1.00;;;;;;;5.73;45.53;102562.09;4999918;28;20087;-69
2023/03/03 10:47:58;;;;;;;5.38;1.55;;;;;;;6.38;44.80;102556.44;5003008;28;20028;-70
2023/03/03 10:50:43;;;;;;;2.55;1.00;;;;;;;6.30;43.96;102555.53;5004274;28;20092;-70
2023/03/03 10:53:33;;;;;;;3.13;0.80;;;;;;;6.66;43.62;102561.72;4997996;28;20102;-69
2023/03/03 10:56:11;;;;;;;6.07;1.67;;;;;;;7.08;42.47;102555.75;5006473;28;20071;-70
2023/03/03 10:58:42;;;;;;;2.00;1.00;;;;;;;6.66;43.35;102554.81;5002935;28;20451;-67
2023/03/03 11:01:36;;;;;;;3.40;1.17;;;;;;;5.56;43.68;102561.94;5008381;28;20482;-68
2023/03/03 11:04:28;;;;;;;9.30;1.30;;;;;;;5.93;43.97;102555.31;5011142;28;20052;-71
2023/03/03 11:07:23;;;;;;;2.03;1.08;;;;;;;5.75;43.94;102550.84;5008292;28;20041;-70
2023/03/03 11:09:57;;;;;;;2.63;0.90;;;;;;;5.83;43.97;102543.09;5003683;28;20041;-70
2023/03/03 11:12:26;;;;;;;2.00;0.57;;;;;;;5.93;44.53;102544.91;5012842;28;20043;-69
2023/03/03 11:15:17;;;;;;;5.22;0.70;;;;;;;6.21;42.89;102542.47;5007308;28;21046;-70
2023/03/03 11:18:26;;;;;;;1.38;0.30;;;;;;;5.91;42.41;102543.19;5012694;28;20037;-69
2023/03/03 11:21:44;;;;;;;4.47;0.80;;;;;;;6.14;41.73;102541.56;5005125;28;20064;-70
2023/03/03 11:24:14;;;;;;;1.70;0.47;;;;;;;6.24;41.41;102542.50;4977917;28;20139;-69
2023/03/03 11:26:57;;;;;;;2.83;0.82;;;;;;;5.73;42.15;102543.94;5005925;28;20736;-69
2023/03/03 11:29:54;;;;;;;5.28;1.38;;;;;;;5.57;42.61;102542.91;5010669;28;20827;-70
2023/03/03 11:32:37;;;;;;;5.93;0.60;;;;;;;5.77;42.84;102535.28;5001131;28;20083;-69
2023/03/03 11:35:20;;;;;;;5.28;0.60;;;;;;;6.29;40.83;102533.03;5005847;28;20043;-70
2023/03/03 11:37:58;;;;;;;3.13;1.13;;;;;;;6.70;38.82;102537.50;5006427;28;20453;-69
2023/03/03 11:40:29;;;;;;;2.67;0.25;;;;;;;6.57;38.50;102530.53;5003387;28;20056;-70
2023/03/03 11:43:04;;;;;;;4.45;0.50;;;;;;;6.62;39.22;102524.50;5012878;28;20037;-69
2023/03/03 11:45:42;;;;;;;4.88;0.30;;;;;;;7.11;38.76;102523.72;5017674;28;20576;-70
2023/03/03 11:48:13;;;;;;;2.80;0.20;;;;;;;7.29;38.09;102518.53;5009077;28;20044;-68
2023/03/03 11:50:55;;;;;;;3.33;0.20;;;;;;;7.28;37.45;102521.97;5001707;28;20150;-68